createdAt,value
2022-12-14T00:01:58.969Z,53.72
2022-12-14T00:04:27.919Z,53.03
2022-12-14T00:06:57.055Z,51.55
2022-12-14T00:09:26.043Z,51.38
2022-12-14T00:11:55.143Z,50.47
2022-12-14T00:14:24.368Z,50.17
2022-12-14T00:16:53.279Z,51.53
2022-12-14T00:19:22.434Z,48.15
2022-12-14T00:21:51.565Z,49.92
2022-12-14T00:24:20.773Z,44.70
2022-12-14T00:26:49.736Z,55.05
2022-12-14T00:29:18.753Z,45.55
2022-12-14T00:31:48.855Z,44.03
2022-12-14T00:34:18.521Z,47.72
2022-12-14T00:36:47.479Z,43.58
2022-12-14T00:39:16.407Z,45.88
2022-12-14T00:41:45.469Z,42.00
2022-12-14T00:44:14.422Z,37.88
2022-12-14T00:46:43.465Z,37.38
2022-12-14T00:49:13.089Z,34.53
2022-12-14T00:51:42.106Z,34.58
2022-12-14T00:54:11.426Z,30.77
2022-12-14T00:56:40.380Z,33.00
2022-12-14T00:59:09.580Z,34.72
2022-12-14T01:01:38.957Z,26.73
2022-12-14T01:04:20.575Z,28.08
2022-12-14T01:06:53.906Z,27.50
2022-12-14T01:09:25.328Z,27.15
2022-12-14T01:11:54.635Z,26.48
2022-12-14T01:14:24.350Z,25.92
2022-12-14T01:16:53.487Z,24.50
2022-12-14T01:19:25.524Z,23.85
2022-12-14T01:21:54.520Z,25.23
2022-12-14T01:24:23.972Z,26.65
2022-12-14T01:26:52.889Z,23.58
2022-12-14T01:29:21.991Z,22.50
2022-12-14T01:31:51.132Z,23.48
2022-12-14T01:34:20.214Z,23.13
2022-12-14T01:36:49.284Z,20.88
2022-12-14T01:39:18.428Z,20.55
2022-12-14T01:42:00.284Z,24.38
2022-12-14T01:44:29.163Z,20.73
2022-12-14T01:47:08.824Z,22.05
2022-12-14T01:49:50.317Z,20.58
2022-12-14T01:52:22.314Z,22.83
2022-12-14T01:54:57.244Z,25.20
2022-12-14T01:57:41.409Z,21.05
2022-12-14T02:00:14.305Z,25.90
2022-12-14T02:02:57.681Z,23.35
2022-12-14T02:05:27.406Z,22.35
2022-12-14T02:07:57.956Z,18.83
2022-12-14T02:10:29.488Z,18.33
2022-12-14T02:13:10.397Z,18.45
2022-12-14T02:15:40.553Z,18.67
2022-12-14T02:18:15.807Z,18.02
2022-12-14T02:21:07.452Z,18.90
2022-12-14T02:23:39.305Z,17.85
2022-12-14T02:26:34.230Z,17.00
2022-12-14T02:29:30.902Z,15.65
2022-12-14T02:32:28.646Z,17.55
2022-12-14T02:35:16.835Z,18.38
2022-12-14T02:38:02.735Z,17.10
2022-12-14T02:40:40.995Z,17.55
2022-12-14T02:43:30.854Z,16.08
2022-12-14T02:46:24.665Z,14.55
2022-12-14T02:49:14.817Z,17.45
2022-12-14T02:51:59.070Z,14.73
2022-12-14T02:54:41.762Z,15.05
2022-12-14T02:57:17.808Z,16.35
2022-12-14T03:00:48.318Z,24.48
2022-12-14T03:03:20.111Z,16.65
2022-12-14T03:06:03.526Z,13.95
2022-12-14T03:08:36.848Z,15.10
2022-12-14T03:11:08.131Z,15.47
2022-12-14T03:14:07.708Z,15.07
2022-12-14T03:16:44.482Z,14.25
2022-12-14T03:19:28.613Z,14.02
2022-12-14T03:22:18.590Z,13.75
2022-12-14T03:24:56.970Z,14.68
2022-12-14T03:27:50.850Z,13.85
2022-12-14T03:30:43.965Z,13.80
2022-12-14T03:33:14.926Z,14.23
2022-12-14T03:36:20.464Z,13.77
2022-12-14T03:38:55.679Z,14.63
2022-12-14T03:41:36.906Z,14.07
2022-12-14T03:44:15.698Z,14.50
2022-12-14T03:47:14.229Z,14.75
2022-12-14T03:50:02.913Z,13.95
2022-12-14T03:52:34.727Z,13.57
2022-12-14T03:55:22.234Z,14.38
2022-12-14T03:58:11.303Z,12.85
2022-12-14T04:01:10.705Z,13.23
2022-12-14T04:04:01.411Z,13.07
2022-12-14T04:06:30.363Z,13.32
2022-12-14T04:09:10.664Z,15.30
2022-12-14T04:12:05.109Z,12.43
2022-12-14T04:14:59.412Z,11.55
2022-12-14T04:17:50.806Z,11.70
2022-12-14T04:20:23.687Z,11.30
2022-12-14T04:23:00.520Z,11.63
2022-12-14T04:25:53.187Z,11.45
2022-12-14T04:28:49.870Z,13.18
2022-12-14T04:31:22.883Z,12.45
2022-12-14T04:33:56.367Z,12.60
2022-12-14T04:36:43.444Z,13.10
2022-12-14T04:39:23.820Z,11.13
2022-12-14T04:41:58.724Z,11.88
2022-12-14T04:44:39.380Z,12.48
2022-12-14T04:47:12.245Z,17.73
2022-12-14T04:49:53.255Z,15.80
2022-12-14T04:52:38.006Z,15.55
2022-12-14T04:55:25.400Z,13.93
2022-12-14T04:58:06.526Z,10.93
2022-12-14T05:00:45.510Z,10.77
2022-12-14T05:03:23.504Z,11.35
2022-12-14T05:06:12.462Z,11.75
2022-12-14T05:08:52.124Z,11.10
2022-12-14T05:11:54.890Z,10.60
2022-12-14T05:14:52.502Z,10.40
2022-12-14T05:17:21.791Z,11.65
2022-12-14T05:19:52.417Z,10.45
2022-12-14T05:22:21.858Z,11.82
2022-12-14T05:24:51.883Z,11.48
2022-12-14T05:27:20.869Z,11.25
2022-12-14T05:29:49.851Z,10.80
2022-12-14T05:32:18.885Z,10.60
2022-12-14T05:34:48.004Z,12.32
2022-12-14T05:37:18.569Z,10.50
2022-12-14T05:39:48.073Z,10.88
2022-12-14T05:42:17.865Z,10.65
2022-12-14T05:44:47.114Z,12.45
2022-12-14T05:47:16.296Z,10.15
2022-12-14T05:49:45.292Z,10.90
2022-12-14T05:52:21.498Z,12.15
2022-12-14T05:54:50.439Z,13.10
2022-12-14T05:57:19.607Z,12.38
2022-12-14T05:59:48.781Z,11.43
2022-12-14T06:02:17.963Z,12.05
2022-12-14T06:04:47.114Z,10.82
2022-12-14T06:07:16.379Z,11.30
2022-12-14T06:09:45.296Z,11.30
2022-12-14T06:12:14.497Z,10.43
2022-12-14T06:14:46.004Z,10.00
2022-12-14T06:17:15.303Z,10.02
2022-12-14T06:19:49.878Z,9.95
2022-12-14T06:22:20.250Z,9.57
2022-12-14T06:24:49.463Z,10.70
2022-12-14T06:27:18.457Z,11.07
2022-12-14T06:29:47.441Z,9.73
2022-12-14T06:32:16.377Z,11.20
2022-12-14T06:34:47.946Z,10.70
2022-12-14T06:37:17.162Z,9.80
2022-12-14T06:39:49.760Z,9.85
2022-12-14T06:42:23.219Z,10.40
2022-12-14T06:44:52.171Z,11.30
2022-12-14T06:47:21.085Z,11.02
2022-12-14T06:49:52.100Z,11.15
2022-12-14T06:52:26.489Z,10.35
2022-12-14T06:54:56.505Z,10.40
2022-12-14T06:57:25.432Z,11.63
2022-12-14T06:59:54.780Z,10.43
2022-12-14T07:02:24.021Z,10.65
2022-12-14T07:04:53.151Z,10.80
2022-12-14T07:07:22.146Z,10.68
2022-12-14T07:09:51.205Z,10.77
2022-12-14T07:12:20.288Z,10.93
2022-12-14T07:14:49.264Z,10.85
2022-12-14T07:17:18.289Z,10.43
2022-12-14T07:19:49.084Z,10.10
2022-12-14T07:22:18.277Z,10.52
2022-12-14T07:24:47.413Z,10.35
2022-12-14T07:27:19.326Z,10.13
2022-12-14T07:29:48.533Z,10.95
2022-12-14T07:32:17.510Z,9.70
2022-12-14T07:34:46.874Z,10.02
2022-12-14T07:37:16.249Z,11.43
2022-12-14T07:39:45.248Z,10.18
2022-12-14T07:42:14.231Z,10.25
2022-12-14T07:44:46.187Z,11.43
2022-12-14T07:47:16.809Z,12.38
2022-12-14T07:49:46.390Z,9.88
2022-12-14T07:52:17.879Z,10.80
2022-12-14T07:54:46.850Z,9.98
2022-12-14T07:57:15.785Z,10.98
2022-12-14T07:59:44.782Z,10.13
2022-12-14T08:02:13.818Z,10.40
2022-12-14T08:04:42.973Z,9.82
2022-12-14T08:07:12.122Z,11.10
2022-12-14T08:09:41.354Z,11.18
2022-12-14T08:12:10.323Z,11.02
2022-12-14T08:14:39.255Z,10.48
2022-12-14T08:17:08.416Z,10.60
2022-12-14T08:19:37.707Z,10.88
2022-12-14T08:22:06.692Z,11.25
2022-12-14T08:24:35.629Z,11.27
2022-12-14T08:27:04.640Z,11.57
2022-12-14T08:29:33.603Z,10.80
2022-12-14T08:32:02.588Z,11.05
2022-12-14T08:34:31.827Z,10.90
2022-12-14T08:37:00.831Z,12.55
2022-12-14T08:39:29.802Z,12.50
2022-12-14T08:41:58.780Z,10.48
2022-12-14T08:44:27.732Z,12.40
2022-12-14T08:46:56.793Z,12.05
2022-12-14T08:49:31.971Z,10.82
2022-12-14T08:52:01.397Z,10.55
2022-12-14T08:54:31.062Z,10.98
2022-12-14T08:57:00.140Z,11.55
2022-12-14T08:59:59.767Z,10.75
2022-12-14T09:02:18.366Z,10.57
2022-12-14T09:04:47.465Z,11.07
2022-12-14T09:07:16.554Z,11.43
2022-12-14T09:09:45.662Z,11.63
2022-12-14T09:12:14.625Z,12.38
2022-12-14T09:14:49.329Z,10.95
2022-12-14T09:17:19.314Z,11.32
2022-12-14T09:19:48.298Z,11.05
2022-12-14T09:22:17.369Z,11.18
2022-12-14T09:24:46.466Z,11.57
2022-12-14T09:27:15.377Z,11.60
2022-12-14T09:29:45.140Z,11.75
2022-12-14T09:32:14.112Z,10.77
2022-12-14T09:34:43.046Z,11.65
2022-12-14T09:37:12.469Z,11.57
2022-12-14T09:39:41.431Z,11.75
2022-12-14T09:42:19.650Z,11.77
2022-12-14T09:45:00.034Z,11.82
2022-12-14T09:47:55.298Z,12.35
2022-12-14T09:50:25.490Z,11.45
2022-12-14T09:52:58.347Z,11.70
2022-12-14T09:55:27.382Z,11.40
2022-12-14T09:58:21.163Z,12.20
2022-12-14T10:01:05.323Z,11.23
2022-12-14T10:06:39.859Z,12.23
2022-12-14T10:09:43.855Z,11.38
2022-12-14T10:12:58.141Z,11.95
2022-12-14T10:15:49.246Z,11.88
2022-12-14T10:31:56.384Z,11.82
2022-12-14T10:34:31.162Z,11.55
2022-12-14T10:37:22.382Z,12.95
2022-12-14T10:40:19.737Z,16.85
2022-12-14T10:43:16.528Z,12.43
2022-12-14T10:45:45.559Z,11.52
2022-12-14T10:48:30.435Z,13.63
2022-12-14T10:51:08.349Z,14.27
2022-12-14T10:54:06.190Z,12.82
2022-12-14T10:56:37.363Z,12.85
2022-12-14T10:59:27.569Z,12.68
2022-12-14T11:02:12.284Z,12.88
2022-12-14T11:04:53.968Z,13.15
2022-12-14T11:07:34.662Z,12.43
2022-12-14T11:10:30.977Z,13.35
2022-12-14T11:13:08.823Z,13.77
2022-12-14T11:15:43.450Z,12.82
2022-12-14T11:18:18.337Z,13.90
2022-12-14T11:20:55.001Z,16.20
2022-12-14T11:23:31.480Z,15.55
2022-12-14T11:26:04.524Z,18.40
2022-12-14T11:28:37.505Z,19.90
2022-12-14T11:31:13.546Z,17.23
2022-12-14T11:33:51.315Z,16.80
2022-12-14T11:36:39.975Z,18.50
2022-12-14T11:39:14.939Z,18.15
2022-12-14T11:41:45.207Z,18.20
2022-12-14T11:44:29.623Z,22.52
2022-12-14T11:49:45.386Z,26.50
2022-12-14T11:52:24.818Z,24.15
2022-12-14T11:55:02.859Z,24.42
2022-12-14T11:57:40.969Z,22.25
2022-12-14T12:00:31.217Z,22.35
2022-12-14T12:03:18.846Z,21.77
2022-12-14T12:05:48.559Z,18.83
2022-12-14T12:08:29.106Z,19.33
2022-12-14T12:11:02.498Z,19.33
2022-12-14T12:13:42.152Z,17.42
2022-12-14T12:16:24.674Z,19.65
2022-12-14T12:19:19.947Z,20.70
2022-12-14T12:21:49.340Z,20.23
2022-12-14T12:24:33.365Z,20.13
2022-12-14T12:27:13.057Z,20.80
2022-12-14T12:29:54.578Z,20.17
2022-12-14T12:32:39.188Z,19.63
2022-12-14T12:35:30.954Z,20.27
2022-12-14T12:38:07.976Z,21.50
2022-12-14T12:40:53.314Z,21.50
2022-12-14T12:43:43.665Z,23.30
2022-12-14T12:46:27.677Z,34.97
2022-12-14T12:49:13.695Z,21.50
2022-12-14T12:51:57.129Z,20.48
2022-12-14T12:54:52.246Z,20.88
2022-12-14T12:57:22.542Z,22.50
2022-12-14T12:59:55.814Z,21.63
2022-12-14T13:02:39.663Z,22.57
2022-12-14T13:05:45.075Z,20.95
2022-12-14T13:08:22.454Z,19.40
2022-12-14T13:13:46.747Z,21.10
2022-12-14T13:16:37.859Z,23.02
2022-12-14T13:19:52.713Z,22.55
2022-12-14T13:22:32.726Z,22.60
2022-12-14T13:25:12.350Z,20.73
2022-12-14T13:28:07.461Z,20.73
2022-12-14T13:31:00.760Z,22.17
2022-12-14T13:33:38.697Z,22.05
2022-12-14T13:36:48.787Z,22.20
2022-12-14T13:39:31.217Z,22.65
2022-12-14T13:42:28.448Z,22.00
2022-12-14T13:45:00.458Z,22.77
2022-12-14T13:47:55.089Z,23.77
2022-12-14T13:50:37.513Z,25.05
2022-12-14T13:53:13.461Z,25.35
2022-12-14T13:56:02.634Z,25.40
2022-12-14T13:58:42.717Z,25.27
2022-12-14T14:01:34.275Z,23.77
2022-12-14T14:04:24.810Z,21.27
2022-12-14T14:06:58.285Z,22.50
2022-12-14T14:09:36.125Z,24.58
2022-12-14T14:12:06.184Z,23.10
2022-12-14T14:15:05.527Z,23.23
2022-12-14T14:17:41.560Z,25.35
2022-12-14T14:20:35.001Z,23.77
2022-12-14T14:23:16.994Z,23.85
2022-12-14T14:26:10.976Z,24.80
2022-12-14T14:28:40.106Z,26.07
2022-12-14T14:31:09.660Z,24.02
2022-12-14T14:33:51.670Z,24.30
2022-12-14T14:36:37.446Z,24.08
2022-12-14T14:39:54.983Z,24.80
2022-12-14T14:42:24.098Z,26.20
2022-12-14T14:45:02.814Z,24.30
2022-12-14T14:47:42.672Z,25.30
2022-12-14T14:50:17.846Z,26.95
2022-12-14T14:52:58.941Z,24.50
2022-12-14T14:58:34.170Z,24.35
2022-12-14T15:01:10.023Z,25.13
2022-12-14T15:04:00.851Z,26.58
2022-12-14T15:06:42.493Z,26.15
2022-12-14T15:09:12.248Z,23.40
2022-12-14T15:11:53.622Z,23.65
2022-12-14T15:14:48.514Z,21.95
2022-12-14T15:17:20.723Z,21.13
2022-12-14T15:19:53.631Z,21.42
2022-12-14T15:22:48.799Z,19.75
2022-12-14T15:25:29.404Z,21.38
2022-12-14T15:28:03.111Z,18.80
2022-12-14T15:30:32.640Z,21.27
2022-12-14T15:33:11.422Z,21.98
2022-12-14T15:35:49.384Z,21.17
2022-12-14T15:38:32.002Z,20.90
2022-12-14T15:41:07.561Z,20.95
2022-12-14T15:43:36.533Z,21.42
2022-12-14T15:46:05.557Z,22.85
2022-12-14T15:48:37.407Z,20.38
2022-12-14T15:51:08.876Z,23.35
2022-12-14T15:53:50.805Z,20.88
2022-12-14T15:56:29.862Z,21.73
2022-12-14T15:59:05.797Z,22.55
2022-12-14T16:01:47.307Z,21.65
2022-12-14T16:04:23.197Z,20.48
2022-12-14T16:07:08.656Z,22.75
2022-12-14T16:09:51.250Z,20.08
2022-12-14T16:12:44.716Z,21.83
2022-12-14T16:15:22.226Z,22.98
2022-12-14T16:17:59.231Z,22.30
2022-12-14T16:20:33.610Z,21.08
2022-12-14T16:23:15.485Z,20.92
2022-12-14T16:26:01.170Z,21.05
2022-12-14T16:28:33.645Z,20.73
2022-12-14T16:31:22.979Z,21.40
2022-12-14T16:34:16.642Z,21.33
2022-12-14T16:37:08.012Z,19.95
2022-12-14T16:39:55.563Z,19.98
2022-12-14T16:42:27.513Z,19.15
2022-12-14T16:44:57.192Z,20.63
2022-12-14T16:47:36.189Z,18.90
2022-12-14T16:53:27.881Z,19.75
2022-12-14T16:56:07.438Z,20.25
2022-12-14T16:58:37.660Z,21.10
2022-12-14T17:01:09.918Z,18.88
2022-12-14T17:03:39.314Z,19.10
2022-12-14T17:06:09.285Z,19.63
2022-12-14T17:08:38.611Z,20.75
2022-12-14T17:11:07.851Z,20.25
2022-12-14T17:13:36.969Z,20.40
2022-12-14T17:16:08.863Z,21.00
2022-12-14T17:18:42.486Z,20.73
2022-12-14T17:21:20.251Z,23.40
2022-12-14T17:23:49.972Z,23.08
2022-12-14T17:26:25.180Z,23.25
2022-12-14T17:28:54.757Z,22.90
2022-12-14T17:31:26.253Z,22.30
2022-12-14T17:33:56.153Z,21.45
2022-12-14T17:36:26.417Z,23.55
2022-12-14T17:38:55.480Z,22.80
2022-12-14T17:41:28.873Z,21.33
2022-12-14T17:43:59.124Z,22.63
2022-12-14T17:46:28.435Z,20.98
2022-12-14T17:49:01.510Z,22.88
2022-12-14T17:51:34.455Z,22.58
2022-12-14T17:54:03.524Z,24.73
2022-12-14T17:56:32.660Z,21.50
2022-12-14T17:59:01.803Z,22.45
2022-12-14T18:01:30.856Z,22.70
2022-12-14T18:03:59.975Z,21.52
2022-12-14T18:06:28.961Z,20.90
2022-12-14T18:08:58.011Z,20.40
2022-12-14T18:11:31.100Z,19.73
2022-12-14T18:14:00.521Z,20.60
2022-12-14T18:16:29.767Z,21.33
2022-12-14T18:18:59.187Z,20.35
2022-12-14T18:21:30.788Z,21.30
2022-12-14T18:23:59.925Z,20.17
2022-12-14T18:26:29.363Z,20.65
2022-12-14T18:28:59.030Z,21.85
2022-12-14T18:31:35.969Z,21.50
2022-12-14T18:34:06.687Z,22.35
2022-12-14T18:36:35.637Z,20.70
2022-12-14T18:39:04.830Z,20.40
2022-12-14T18:41:34.553Z,21.13
2022-12-14T18:44:03.892Z,22.10
2022-12-14T18:46:32.989Z,21.55
2022-12-14T18:49:02.158Z,20.65
2022-12-14T18:51:31.206Z,22.67
2022-12-14T18:54:03.389Z,21.33
2022-12-14T18:56:32.367Z,20.55
2022-12-14T18:59:01.546Z,22.35
2022-12-14T19:01:30.668Z,20.67
2022-12-14T19:03:59.755Z,20.63
2022-12-14T19:06:45.506Z,20.60
2022-12-14T19:09:15.911Z,20.50
2022-12-14T19:11:46.121Z,19.38
2022-12-14T19:14:15.207Z,20.58
2022-12-14T19:16:44.272Z,21.13
2022-12-14T19:19:13.457Z,20.17
2022-12-14T19:21:42.494Z,20.05
2022-12-14T19:24:14.653Z,21.13
2022-12-14T19:26:43.645Z,20.45
2022-12-14T19:29:18.554Z,20.00
2022-12-14T19:31:51.742Z,19.80
2022-12-14T19:34:24.073Z,21.55
2022-12-14T19:36:53.150Z,19.48
2022-12-14T19:39:22.313Z,20.23
2022-12-14T19:41:51.356Z,21.48
2022-12-14T19:44:20.299Z,22.42
2022-12-14T19:46:49.556Z,21.42
2022-12-14T19:49:18.661Z,21.15
2022-12-14T19:51:47.695Z,24.25
2022-12-14T19:54:16.705Z,23.00
2022-12-14T19:56:51.283Z,24.10
2022-12-14T19:59:20.743Z,25.48
2022-12-14T20:01:50.140Z,25.30
2022-12-14T20:04:22.683Z,25.55
2022-12-14T20:06:51.772Z,25.65
2022-12-14T20:09:20.902Z,24.45
2022-12-14T20:11:49.937Z,23.83
2022-12-14T20:14:19.068Z,24.52
2022-12-14T20:16:48.113Z,23.52
2022-12-14T20:19:17.289Z,26.80
2022-12-14T20:21:46.590Z,22.90
2022-12-14T20:24:16.198Z,24.45
2022-12-14T20:26:46.435Z,23.90
2022-12-14T20:29:18.376Z,23.55
2022-12-14T20:31:47.689Z,23.27
2022-12-14T20:34:16.805Z,22.50
2022-12-14T20:36:45.790Z,23.90
2022-12-14T20:39:14.769Z,22.38
2022-12-14T20:41:44.615Z,23.50
2022-12-14T20:44:13.910Z,23.23
2022-12-14T20:46:45.988Z,22.42
2022-12-14T20:49:16.700Z,22.35
2022-12-14T20:51:47.711Z,23.35
2022-12-14T20:54:19.623Z,22.88
2022-12-14T20:56:49.481Z,23.38
2022-12-14T20:59:19.357Z,23.33
2022-12-14T21:01:55.105Z,19.90
2022-12-14T21:04:25.746Z,21.77
2022-12-14T21:06:54.920Z,21.35
2022-12-14T21:09:23.978Z,19.83
2022-12-14T21:12:11.221Z,20.00
2022-12-14T21:14:48.331Z,21.67
2022-12-14T21:17:17.370Z,21.30
2022-12-14T21:19:46.345Z,20.73
2022-12-14T21:22:18.839Z,22.13
2022-12-14T21:25:05.300Z,23.25
2022-12-14T21:27:36.178Z,26.75
2022-12-14T21:30:06.909Z,25.55
2022-12-14T21:32:38.462Z,25.58
2022-12-14T21:35:07.885Z,25.48
2022-12-14T21:37:39.967Z,24.63
2022-12-14T21:40:09.651Z,25.38
2022-12-14T21:42:38.599Z,23.75
2022-12-14T21:45:09.299Z,21.65
2022-12-14T21:47:38.299Z,22.90
2022-12-14T21:50:07.973Z,23.08
2022-12-14T21:52:39.240Z,21.63
2022-12-14T21:55:08.772Z,22.92
2022-12-14T21:57:57.925Z,27.15
2022-12-14T22:00:26.924Z,26.30
2022-12-14T22:02:56.810Z,38.65
2022-12-14T22:05:25.883Z,40.55
2022-12-14T22:07:55.065Z,34.38
2022-12-14T22:10:25.239Z,35.70
2022-12-14T22:12:54.819Z,27.98
2022-12-14T22:15:23.935Z,25.67
2022-12-14T22:17:53.309Z,27.52
2022-12-14T22:20:22.329Z,24.85
2022-12-14T22:22:51.326Z,22.58
2022-12-14T22:25:20.325Z,23.27
2022-12-14T22:27:49.695Z,25.15
2022-12-14T22:30:19.635Z,25.38
2022-12-14T22:32:49.163Z,28.42
2022-12-14T22:35:19.176Z,30.08
2022-12-14T22:37:48.530Z,27.70
2022-12-14T22:40:17.779Z,25.40
2022-12-14T22:42:46.703Z,26.23
2022-12-14T22:45:15.905Z,24.15
2022-12-14T22:47:45.343Z,26.02
2022-12-14T22:50:14.706Z,23.73
2022-12-14T22:52:43.726Z,26.95
2022-12-14T22:55:18.905Z,26.75
2022-12-14T22:57:49.212Z,29.27
2022-12-14T23:00:18.763Z,30.15
2022-12-14T23:02:49.014Z,25.92
2022-12-14T23:05:19.202Z,26.73
2022-12-14T23:07:48.679Z,25.77
2022-12-14T23:10:36.069Z,28.95
2022-12-14T23:13:23.294Z,28.20
2022-12-14T23:16:10.513Z,23.05
2022-12-14T23:18:57.652Z,24.30
2022-12-14T23:21:44.928Z,24.08
2022-12-14T23:24:33.001Z,29.73
2022-12-14T23:27:20.193Z,29.35
2022-12-14T23:30:07.084Z,27.40
2022-12-14T23:32:54.452Z,28.02
2022-12-14T23:35:41.490Z,28.95
2022-12-14T23:38:29.139Z,32.70
2022-12-14T23:41:20.782Z,33.63
2022-12-14T23:44:07.702Z,35.67
2022-12-14T23:46:54.985Z,38.60
2022-12-14T23:49:42.121Z,34.63
2022-12-14T23:52:29.334Z,37.55
2022-12-14T23:55:16.249Z,37.97
2022-12-14T23:58:03.339Z,38.33
